createdAt,value
2018-11-03T00:01:59.458Z,9.30
2018-11-03T00:04:28.007Z,9.30
2018-11-03T00:06:56.559Z,9.20
2018-11-03T00:09:25.118Z,9.30
2018-11-03T00:11:53.713Z,9.40
2018-11-03T00:14:23.139Z,9.40
2018-11-03T00:16:51.683Z,9.40
2018-11-03T00:19:20.224Z,9.40
2018-11-03T00:21:48.810Z,9.40
2018-11-03T00:24:17.373Z,9.40
2018-11-03T00:26:45.918Z,9.40
2018-11-03T00:29:14.451Z,9.40
2018-11-03T00:31:43.019Z,9.40
2018-11-03T00:34:11.615Z,9.40
2018-11-03T00:36:40.147Z,9.50
2018-11-03T00:39:11.311Z,9.50
2018-11-03T00:41:40.131Z,9.50
2018-11-03T00:44:09.398Z,9.50
2018-11-03T00:46:38.180Z,9.50
2018-11-03T00:49:07.053Z,9.60
2018-11-03T00:53:05.504Z,9.60
2018-11-03T00:55:34.078Z,9.60
2018-11-03T00:58:02.623Z,9.60
2018-11-03T01:00:31.215Z,9.70
2018-11-03T01:02:59.771Z,9.60
2018-11-03T01:05:28.609Z,9.60
2018-11-03T01:07:57.331Z,9.60
2018-11-03T01:10:25.876Z,9.70
2018-11-03T01:12:54.454Z,9.70
2018-11-03T01:15:22.992Z,9.70
2018-11-03T01:17:51.567Z,9.60
2018-11-03T01:20:20.107Z,9.70
2018-11-03T01:22:48.998Z,9.70
2018-11-03T01:25:17.566Z,9.70
2018-11-03T01:27:46.250Z,9.60
2018-11-03T01:30:16.252Z,9.70
2018-11-03T01:32:45.068Z,9.70
2018-11-03T01:35:13.625Z,9.70
2018-11-03T01:37:42.193Z,9.70
2018-11-03T01:40:13.247Z,9.70
2018-11-03T01:42:42.267Z,9.70
2018-11-03T01:45:10.839Z,9.70
2018-11-03T01:47:39.376Z,9.70
2018-11-03T01:50:10.619Z,9.70
2018-11-03T01:52:39.970Z,9.70
2018-11-03T01:55:08.583Z,9.70
2018-11-03T01:57:38.207Z,9.70
2018-11-03T02:00:08.695Z,9.70
2018-11-03T02:02:37.270Z,9.70
2018-11-03T02:05:06.713Z,9.80
2018-11-03T02:07:35.667Z,9.70
2018-11-03T02:10:04.891Z,9.80
2018-11-03T02:12:33.424Z,9.80
2018-11-03T02:15:02.462Z,9.70
2018-11-03T02:17:31.151Z,9.80
2018-11-03T02:19:59.695Z,9.80
2018-11-03T02:22:28.243Z,9.80
2018-11-03T02:24:57.070Z,9.70
2018-11-03T02:27:25.607Z,9.80
2018-11-03T02:29:54.136Z,9.80
2018-11-03T02:32:22.903Z,9.80
2018-11-03T02:34:51.442Z,9.80
2018-11-03T02:37:19.986Z,9.80
2018-11-03T02:39:48.536Z,9.70
2018-11-03T02:42:17.104Z,9.80
2018-11-03T02:44:45.666Z,9.80
2018-11-03T02:47:14.256Z,9.80
2018-11-03T02:49:42.787Z,9.80
2018-11-03T02:52:11.524Z,9.80
2018-11-03T02:54:40.132Z,9.80
2018-11-03T02:57:08.903Z,9.80
2018-11-03T02:59:37.484Z,9.70
2018-11-03T03:02:06.100Z,9.70
2018-11-03T03:04:34.679Z,9.70
2018-11-03T03:07:03.227Z,9.70
2018-11-03T03:09:32.324Z,9.70
2018-11-03T03:12:00.874Z,9.70
2018-11-03T03:14:29.424Z,9.70
2018-11-03T03:16:58.409Z,9.70
2018-11-03T03:19:26.959Z,9.80
2018-11-03T03:21:55.754Z,9.70
2018-11-03T03:24:24.300Z,9.70
2018-11-03T03:26:53.004Z,9.70
2018-11-03T03:29:21.613Z,9.70
2018-11-03T03:31:50.179Z,9.70
2018-11-03T03:34:18.776Z,9.70
2018-11-03T03:36:47.343Z,9.60
2018-11-03T03:39:15.888Z,9.60
2018-11-03T03:41:44.485Z,9.60
2018-11-03T03:44:13.018Z,9.50
2018-11-03T03:46:41.791Z,9.50
2018-11-03T03:49:10.387Z,9.60
2018-11-03T03:51:38.921Z,9.50
2018-11-03T03:54:07.851Z,9.50
2018-11-03T03:56:36.446Z,9.50
2018-11-03T03:59:05.099Z,9.50
2018-11-03T04:01:33.651Z,9.50
2018-11-03T04:04:02.272Z,9.50
2018-11-03T04:06:31.279Z,9.50
2018-11-03T04:09:00.147Z,9.50
2018-11-03T04:11:28.833Z,9.50
2018-11-03T04:13:57.374Z,9.50
2018-11-03T04:16:25.899Z,9.50
2018-11-03T04:18:55.531Z,9.50
2018-11-03T04:21:29.207Z,9.40
2018-11-03T04:23:59.147Z,9.50
2018-11-03T04:26:29.147Z,9.50
2018-11-03T04:28:58.285Z,9.50
2018-11-03T04:31:27.574Z,9.50
2018-11-03T04:33:56.458Z,9.50
2018-11-03T04:36:25.221Z,9.50
2018-11-03T04:38:53.754Z,9.50
2018-11-03T04:41:22.711Z,9.50
2018-11-03T04:43:51.311Z,9.50
2018-11-03T04:46:19.882Z,9.40
2018-11-03T04:48:48.470Z,9.40
2018-11-03T04:51:17.052Z,9.40
2018-11-03T04:53:45.606Z,9.40
2018-11-03T04:56:14.423Z,9.50
2018-11-03T04:58:43.359Z,9.50
2018-11-03T05:01:11.906Z,9.50
2018-11-03T05:03:40.447Z,9.50
2018-11-03T05:06:08.979Z,9.50
2018-11-03T05:08:37.904Z,9.50
2018-11-03T05:11:06.542Z,9.50
2018-11-03T05:13:35.759Z,9.50
2018-11-03T05:16:04.366Z,9.50
2018-11-03T05:18:32.899Z,9.40
2018-11-03T05:21:01.594Z,9.40
2018-11-03T05:23:30.163Z,9.40
2018-11-03T05:25:58.671Z,9.40
2018-11-03T05:28:27.237Z,9.40
2018-11-03T05:30:55.792Z,9.40
2018-11-03T05:33:24.558Z,9.40
2018-11-03T05:35:53.086Z,9.40
2018-11-03T05:38:21.645Z,9.40
2018-11-03T05:40:50.211Z,9.40
2018-11-03T05:43:18.743Z,9.40
2018-11-03T05:45:48.196Z,9.40
2018-11-03T05:48:16.719Z,9.40
2018-11-03T05:50:45.283Z,9.40
2018-11-03T05:53:13.859Z,9.40
2018-11-03T05:55:42.690Z,9.30
2018-11-03T05:58:11.262Z,9.30
2018-11-03T06:00:39.836Z,9.40
2018-11-03T06:03:08.387Z,9.40
2018-11-03T06:05:37.216Z,9.40
2018-11-03T06:08:05.767Z,9.40
2018-11-03T06:10:34.315Z,9.40
2018-11-03T06:13:03.118Z,9.30
2018-11-03T06:15:31.810Z,9.30
2018-11-03T06:18:00.655Z,9.30
2018-11-03T06:20:29.187Z,9.30
2018-11-03T06:22:57.807Z,9.30
2018-11-03T06:25:26.303Z,9.30
2018-11-03T06:27:54.900Z,9.20
2018-11-03T06:30:24.079Z,9.20
2018-11-03T06:32:52.622Z,9.30
2018-11-03T06:35:21.215Z,9.20
2018-11-03T06:37:49.754Z,9.30
2018-11-03T06:40:18.306Z,9.20
2018-11-03T06:42:46.864Z,9.30
2018-11-03T06:45:15.778Z,9.20
2018-11-03T06:47:44.328Z,9.30
2018-11-03T06:50:13.019Z,9.30
2018-11-03T06:52:41.812Z,9.20
2018-11-03T06:55:10.501Z,9.30
2018-11-03T06:57:39.051Z,9.30
2018-11-03T07:00:09.578Z,9.30
2018-11-03T07:02:38.143Z,9.30
2018-11-03T07:05:08.364Z,9.30
2018-11-03T07:07:37.279Z,9.20
2018-11-03T07:11:36.283Z,9.20
2018-11-03T07:14:04.912Z,9.20
2018-11-03T07:16:34.007Z,9.20
2018-11-03T07:19:02.962Z,9.20
2018-11-03T07:21:31.569Z,9.20
2018-11-03T07:24:00.103Z,9.20
2018-11-03T07:26:28.662Z,9.20
2018-11-03T07:28:57.229Z,9.10
2018-11-03T07:31:26.191Z,9.10
2018-11-03T07:33:54.754Z,9.10
2018-11-03T07:36:23.743Z,9.10
2018-11-03T07:38:52.285Z,9.10
2018-11-03T07:41:20.869Z,9.00
2018-11-03T07:43:50.000Z,9.00
2018-11-03T07:46:18.860Z,9.00
2018-11-03T07:48:48.153Z,9.00
2018-11-03T07:51:16.639Z,8.90
2018-11-03T07:53:45.188Z,8.90
2018-11-03T07:56:13.716Z,8.90
2018-11-03T07:58:42.779Z,8.90
2018-11-03T08:01:11.320Z,8.90
2018-11-03T08:03:39.858Z,8.90
2018-11-03T08:06:08.717Z,8.90
2018-11-03T08:08:37.344Z,8.80
2018-11-03T08:11:05.991Z,8.80
2018-11-03T08:13:34.531Z,8.90
2018-11-03T08:16:03.074Z,9.00
2018-11-03T08:18:31.911Z,9.10
2018-11-03T08:21:00.472Z,9.20
2018-11-03T08:23:29.023Z,9.30
2018-11-03T08:25:57.574Z,9.40
2018-11-03T08:28:26.197Z,9.40
2018-11-03T08:30:54.876Z,9.40
2018-11-03T08:33:23.730Z,9.40
2018-11-03T08:35:52.292Z,9.40
2018-11-03T08:38:20.823Z,9.50
2018-11-03T08:40:49.390Z,9.40
2018-11-03T08:43:18.258Z,9.30
2018-11-03T08:45:46.784Z,9.30
2018-11-03T08:48:15.370Z,9.30
2018-11-03T08:50:43.895Z,9.30
2018-11-03T08:53:12.436Z,9.30
2018-11-03T08:55:41.247Z,9.20
2018-11-03T08:58:09.795Z,9.20
2018-11-03T09:00:38.337Z,9.20
2018-11-03T09:03:07.307Z,9.10
2018-11-03T09:05:35.885Z,9.20
2018-11-03T09:08:04.857Z,9.20
2018-11-03T09:10:33.560Z,9.30
2018-11-03T09:13:02.116Z,9.30
2018-11-03T09:15:31.155Z,9.30
2018-11-03T09:17:59.727Z,9.30
2018-11-03T09:20:28.276Z,9.30
2018-11-03T09:22:56.809Z,9.40
2018-11-03T09:25:25.381Z,9.40
2018-11-03T09:27:54.573Z,9.60
2018-11-03T09:30:23.115Z,9.70
2018-11-03T09:32:51.706Z,9.70
2018-11-03T09:35:20.247Z,9.70
2018-11-03T09:37:48.819Z,9.60
2018-11-03T09:40:18.414Z,9.60
2018-11-03T09:42:47.976Z,9.70
2018-11-03T09:45:16.487Z,9.60
2018-11-03T09:47:45.746Z,9.50
2018-11-03T09:50:15.241Z,9.50
2018-11-03T09:52:44.375Z,9.40
2018-11-03T09:55:15.233Z,9.40
2018-11-03T09:57:44.082Z,9.40
2018-11-03T10:00:19.240Z,9.50
2018-11-03T10:02:47.798Z,9.50
2018-11-03T10:05:16.894Z,9.50
2018-11-03T10:07:45.421Z,9.50
2018-11-03T10:10:15.958Z,9.60
2018-11-03T10:12:44.547Z,9.60
2018-11-03T10:15:14.813Z,9.60
2018-11-03T10:17:44.271Z,9.60
2018-11-03T10:20:12.976Z,9.50
2018-11-03T10:22:41.541Z,9.50
2018-11-03T10:25:13.236Z,9.60
2018-11-03T10:27:42.312Z,9.50
2018-11-03T10:30:12.604Z,9.60
2018-11-03T10:32:41.685Z,9.60
2018-11-03T10:35:11.619Z,9.70
2018-11-03T10:37:40.188Z,9.60
2018-11-03T10:40:12.404Z,9.60
2018-11-03T10:42:41.548Z,9.60
2018-11-03T10:45:11.891Z,9.70
2018-11-03T10:47:40.862Z,9.70
2018-11-03T10:50:13.753Z,9.70
2018-11-03T10:52:43.542Z,10.00
2018-11-03T10:55:13.435Z,10.20
2018-11-03T10:57:42.623Z,10.30
2018-11-03T11:00:18.932Z,10.30
2018-11-03T11:02:52.744Z,10.20
2018-11-03T11:05:35.123Z,10.00
2018-11-03T11:08:09.044Z,9.90
2018-11-03T11:10:42.973Z,9.90
2018-11-03T11:13:28.122Z,9.90
2018-11-03T11:15:58.342Z,9.80
2018-11-03T11:18:26.859Z,9.80
2018-11-03T11:20:55.450Z,9.70
2018-11-03T11:23:24.476Z,9.60
2018-11-03T11:25:53.223Z,9.70
2018-11-03T11:28:21.784Z,9.70
2018-11-03T11:30:50.354Z,9.60
2018-11-03T11:33:19.463Z,9.60
2018-11-03T11:35:48.343Z,9.60
2018-11-03T11:38:16.907Z,9.60
2018-11-03T11:40:45.471Z,9.50
